Cfl Proud — PBUI — position and weather

sailwx.info

Track history (hours):
 
Tides and Currents Weather Stations Pressure Air Temp Water Temp Dewpoint Dewpoint Depression Visibility Wind Speed Wind Dir Waves Ship Positions

Cfl Proud

Last reported at 2018-Jun-24 14:58 UTC. Time now 2018-Jun-24 15:06 UTC.
Position N 54°33' E 018°31'.

Length 118 m; draft 3.6 m.

Type: Cargo ship. MMSI: 246611000.

Date/timePositionNaut miles runAvg speedWind from/ knotsBaromVisibWave heightAir tempDewpointWater temp
2018-Jun-24 14:58N 54°33' E 018°31'0 0.0
2018-Jun-24 14:31N 54°33' E 018°31'0 0.0
2018-Jun-24 14:01N 54°33' E 018°31'0 0.0
2018-Jun-24 13:31N 54°33' E 018°31'0 0.0
2018-Jun-24 13:01N 54°33' E 018°31'0 0.0
2018-Jun-24 12:31N 54°33' E 018°31'0 0.0
2018-Jun-24 11:58N 54°33' E 018°31'0 0.0
2018-Jun-24 11:31N 54°33' E 018°31'0 0.0
2018-Jun-24 11:01N 54°33' E 018°31'0 0.0
2018-Jun-24 10:30N 54°33' E 018°31'0 0.0
2018-Jun-24 10:00N 54°33' E 018°31'0 0.0
2018-Jun-24 09:30N 54°33' E 018°31'0 0.0
2018-Jun-24 09:00N 54°33' E 018°31'0 0.0
2018-Jun-24 08:31N 54°33' E 018°31'1 2.3
2018-Jun-24 08:00N 54°32' E 018°32'4 8.4
2018-Jun-24 07:30N 54°32' E 018°40'4 8.6
2018-Jun-24 07:00N 54°32' E 018°47'4 7.7
2018-Jun-24 06:30N 54°35' E 018°52'4 8.3
2018-Jun-24 06:00N 54°38' E 018°55'3 5.8
2018-Jun-24 05:31N 54°41' E 018°58'3 5.6
2018-Jun-24 05:00N 54°38' E 018°56'2 4.8
2018-Jun-24 04:31N 54°41' E 018°56'510.6
2018-Jun-24 04:00N 54°45' E 018°50'510.5
2018-Jun-24 03:30N 54°48' E 018°44'510.2
2018-Jun-24 02:59N 54°52' E 018°37'510.1
2018-Jun-24 02:30N 54°55' E 018°30'510.4
2018-Jun-24 02:00N 54°56' E 018°22'510.0
2018-Jun-24 01:30N 54°56' E 018°13'110 9.9
2018-Jun-23 14:22N 54°39' E 015°05'91 9.9
2018-Jun-23 05:14N 54°34' E 012°28'210.8
2018-Jun-23 05:00N 54°33' E 012°24'510.8
2018-Jun-23 04:30N 54°30' E 012°17'510.7
2018-Jun-23 04:00N 54°26' E 012°11'1610.4
2018-Jun-23 02:28N 54°26' E 011°44'510.2
2018-Jun-23 02:00N 54°28' E 011°36'611.7
2018-Jun-23 01:30N 54°30' E 011°27'612.4
2018-Jun-23 01:00N 54°33' E 011°17'612.1
2018-Jun-23 00:30N 54°35' E 011°08'611.3
2018-Jun-23 00:00N 54°34' E 010°58'510.7
2018-Jun-22 23:30N 54°34' E 010°49'510.2
2018-Jun-22 22:58N 54°33' E 010°39'54 6.3
2018-Jun-22 14:19N 54°05' E 009°19'3 8.2
2018-Jun-22 13:59N 54°03' E 009°18'4 8.2
2018-Jun-22 13:30N 53°59' E 009°17'3 6.0
2018-Jun-22 13:00N 53°56' E 009°13'2 4.8
2018-Jun-22 12:30N 53°55' E 009°11'0 0.0
2018-Jun-22 12:00N 53°55' E 009°11'0 0.0
2018-Jun-22 11:27N 53°55' E 009°11'0 0.0
2018-Jun-22 11:00N 53°55' E 009°11'0 0.0
2018-Jun-22 10:30N 53°55' E 009°11'1 2.0
2018-Jun-22 10:00N 53°54' E 009°10'1 1.4
2018-Jun-22 09:30N 53°54' E 009°09'2 3.6
2018-Jun-22 09:00N 53°53' E 009°06'510.4
2018-Jun-22 08:30N 53°51' E 008°58'610.9
2018-Jun-22 08:00N 53°50' E 008°48'510.6
2018-Jun-22 07:29N 53°54' E 008°41'510.8
2018-Jun-22 07:00N 53°58' E 008°35'5 9.8
2018-Jun-22 06:30N 53°59' E 008°27'510.0
2018-Jun-22 06:00N 53°60' E 008°19'5 9.9
2018-Jun-22 05:30N 53°59' E 008°10'5 9.5
2018-Jun-22 05:00N 53°58' E 008°02'510.0
2018-Jun-22 04:30N 53°57' E 007°54'68 9.2
2018-Jun-21 21:07N 53°41' E 006°02'1 8.1
2018-Jun-21 20:59N 53°41' E 006°01'4 8.1
2018-Jun-21 20:31N 53°39' E 005°54'4 8.1
2018-Jun-21 20:01N 53°38' E 005°48'4 8.3
2018-Jun-21 19:30N 53°37' E 005°41'4 8.2
2018-Jun-21 18:59N 53°35' E 005°34'4 8.2
2018-Jun-21 18:30N 53°34' E 005°28'4 8.0
2018-Jun-21 18:00N 53°33' E 005°22'4 8.1
2018-Jun-21 17:30N 53°32' E 005°15'4 8.0
2018-Jun-21 17:01N 53°30' E 005°09'4 8.4
2018-Jun-21 16:31N 53°28' E 005°03'4 8.3
2018-Jun-21 16:01N 53°27' E 004°56'4 8.7
2018-Jun-21 15:30N 53°26' E 004°49'4 8.8
2018-Jun-21 15:00N 53°24' E 004°43'4 8.2
2018-Jun-21 14:31N 53°21' E 004°37'4 8.0
2018-Jun-21 14:00N 53°17' E 004°35'4 8.1
2018-Jun-21 13:27N 53°13' E 004°33'4 8.1
2018-Jun-21 13:00N 53°10' E 004°31'4 7.9
2018-Jun-21 12:30N 53°06' E 004°29'5 9.0
2018-Jun-21 12:00N 53°04' E 004°22'4 8.5
2018-Jun-21 11:30N 52°60' E 004°21'43 9.4
2018-Jun-21 06:55N 52°26' E 003°36'50 9.1
2018-Jun-21 01:26N 51°49' E 002°43'4 8.9
2018-Jun-21 00:57N 51°46' E 002°38'4 9.2
2018-Jun-21 00:30N 51°43' E 002°34'5 9.5
2018-Jun-21 00:00N 51°39' E 002°29'610.0
2018-Jun-20 23:27N 51°35' E 002°24'510.1
2018-Jun-20 22:59N 51°31' E 002°19'510.3
2018-Jun-20 22:30N 51°27' E 002°14'510.7
2018-Jun-20 22:00N 51°22' E 002°10'510.8
2018-Jun-20 21:30N 51°17' E 002°06'511.0
2018-Jun-20 21:00N 51°13' E 002°01'611.3
2018-Jun-20 20:31N 51°10' E 001°54'611.6
2018-Jun-20 20:00N 51°06' E 001°46'611.9
2018-Jun-20 19:30N 51°02' E 001°39'612.3
2018-Jun-20 19:00N 50°57' E 001°33'612.8
2018-Jun-20 18:30N 50°52' E 001°27'812.5
2018-Jun-20 17:53N 50°45' E 001°22'4911.3
2018-Jun-20 13:30N 50°21' E 000°14'812.1
2018-Jun-20 12:53N 50°19' E 000°03'511.7
2018-Jun-20 12:29N 50°18' W 000°04'611.5
2018-Jun-20 11:59N 50°17' W 000°13'811.2
2018-Jun-20 11:18N 50°15' W 000°25'510.7
2018-Jun-20 10:49N 50°13' W 000°33'16 9.6
2018-Jun-20 09:11N 50°09' W 000°56'2 8.7
2018-Jun-20 09:00N 50°09' W 000°58'5 8.3
2018-Jun-20 08:26N 50°07' W 001°06'4 7.9
2018-Jun-20 07:58N 50°06' W 001°11'4 7.8
2018-Jun-20 07:28N 50°05' W 001°17'4 7.4
2018-Jun-20 06:58N 50°05' W 001°23'4 7.4
2018-Jun-20 06:28N 50°04' W 001°28'9 7.7
2018-Jun-20 05:20N 50°01' W 001°41'4 8.5
2018-Jun-20 04:53N 50°00' W 001°47'4811.0
2018-Jun-20 00:31N 49°46' W 002°58'011.8
2018-Jun-20 00:30N 49°46' W 002°58'611.7
2018-Jun-19 23:59N 49°43' W 003°06'711.6
2018-Jun-19 23:21N 49°39' W 003°16'8010.5
2018-Jun-19 15:42N 48°59' W 005°03'4 8.9
2018-Jun-19 15:13N 48°56' W 005°08'3 8.8
2018-Jun-19 14:55N 48°55' W 005°12'  
2018-Jun-16 19:34N 39°21' W 009°52'1 8.4
2018-Jun-16 19:29N 39°20' W 009°52'4 8.5
2018-Jun-16 19:00N 39°16' W 009°51'4 8.8
2018-Jun-16 18:30N 39°12' W 009°51'5 8.8
2018-Jun-16 18:00N 39°07' W 009°51'4 8.7
2018-Jun-16 17:30N 39°03' W 009°51'4 8.5
2018-Jun-16 17:01N 38°59' W 009°51'4 8.8
2018-Jun-16 16:30N 38°54' W 009°51'5 9.2
2018-Jun-16 16:01N 38°50' W 009°50'5 9.0
2018-Jun-16 15:30N 38°45' W 009°50'4 8.8
2018-Jun-16 15:00N 38°41' W 009°50'4 8.6
2018-Jun-16 14:31N 38°37' W 009°49'4 8.4
2018-Jun-16 14:00N 38°32' W 009°48'4 8.1
2018-Jun-16 13:31N 38°28' W 009°47'4 8.0
2018-Jun-16 13:01N 38°24' W 009°46'4 7.8
2018-Jun-16 12:30N 38°21' W 009°44'4 7.8
2018-Jun-16 12:00N 38°17' W 009°43'4 7.8
2018-Jun-16 11:31N 38°13' W 009°42'4 7.9
2018-Jun-16 11:00N 38°09' W 009°41'4 8.0
2018-Jun-16 10:31N 38°05' W 009°39'4 8.0
2018-Jun-16 10:01N 38°01' W 009°38'4 8.0
2018-Jun-16 09:30N 37°58' W 009°37'4 7.6
2018-Jun-16 08:57N 37°53' W 009°36'4 7.6
2018-Jun-16 08:29N 37°50' W 009°35'4 7.7
2018-Jun-16 08:00N 37°46' W 009°34'4 7.7
2018-Jun-16 07:30N 37°43' W 009°33'4 7.5
2018-Jun-16 06:58N 37°39' W 009°32'29 8.0
2018-Jun-16 03:22N 37°11' W 009°23'4 8.5
2018-Jun-16 02:55N 37°07' W 009°23'4 8.5
2018-Jun-16 02:29N 37°03' W 009°21'4 8.4
2018-Jun-16 02:00N 36°60' W 009°20'4 8.0
2018-Jun-16 01:30N 36°56' W 009°19'4 7.9
2018-Jun-16 00:59N 36°52' W 009°17'5 8.5
2018-Jun-16 00:21N 36°48' W 009°12'4 8.6
2018-Jun-15 23:55N 36°46' W 009°09'4 7.8
2018-Jun-15 23:24N 36°44' W 009°04'3 8.0
2018-Jun-15 23:01N 36°43' W 009°00'4 8.1
2018-Jun-15 22:31N 36°42' W 008°56'4 8.4
2018-Jun-15 22:00N 36°41' W 008°50'4 8.8
2018-Jun-15 21:30N 36°39' W 008°45'5 9.1
2018-Jun-15 20:58N 36°38' W 008°39'4 9.3
2018-Jun-15 20:30N 36°37' W 008°34'5 9.2
2018-Jun-15 20:00N 36°35' W 008°29'5 9.1
2018-Jun-15 19:31N 36°34' W 008°23'5 9.2
2018-Jun-15 19:00N 36°33' W 008°18'14 9.6
2018-Jun-15 17:30N 36°29' W 008°01'5 9.8
2018-Jun-15 17:00N 36°27' W 007°55'610.0
2018-Jun-15 16:27N 36°26' W 007°48'410.2
2018-Jun-15 16:01N 36°25' W 007°43'510.4
2018-Jun-15 15:30N 36°23' W 007°36'97 9.7
2018-Jun-15 05:31N 35°58' W 005°40'1 8.2
2018-Jun-15 05:25N 35°58' W 005°39'3 8.0
2018-Jun-15 05:00N 35°58' W 005°35'4 8.4
2018-Jun-15 04:31N 35°59' W 005°30'4 8.2
2018-Jun-15 04:01N 35°60' W 005°25'4 7.8
2018-Jun-15 03:30N 36°01' W 005°20'4 7.6
2018-Jun-15 03:01N 36°01' W 005°16'4 7.3
2018-Jun-15 02:30N 36°02' W 005°11'  
Track history (hours):
 
Tides and Currents Weather Stations Pressure Air Temp Water Temp Dewpoint Dewpoint Depression Visibility Wind Speed Wind Dir Waves Ship Positions

Cfl Proud

Last reported at 2018-Jun-24 14:58 UTC. Time now 2018-Jun-24 15:06 UTC.
Position N 54°33' E 018°31'.

Length 118 m; draft 3.6 m.

Type: Cargo ship. MMSI: 246611000.

Date/timePositionNaut miles runAvg speedWind from/ knotsBaromVisibWave heightAir tempDewpointWater temp
2018-Jun-24 14:58N 54°33' E 018°31'0 0.0
2018-Jun-24 14:31N 54°33' E 018°31'0 0.0
2018-Jun-24 14:01N 54°33' E 018°31'0 0.0
2018-Jun-24 13:31N 54°33' E 018°31'0 0.0
2018-Jun-24 13:01N 54°33' E 018°31'0 0.0
2018-Jun-24 12:31N 54°33' E 018°31'0 0.0
2018-Jun-24 11:58N 54°33' E 018°31'0 0.0
2018-Jun-24 11:31N 54°33' E 018°31'0 0.0
2018-Jun-24 11:01N 54°33' E 018°31'0 0.0
2018-Jun-24 10:30N 54°33' E 018°31'0 0.0
2018-Jun-24 10:00N 54°33' E 018°31'0 0.0
2018-Jun-24 09:30N 54°33' E 018°31'0 0.0
2018-Jun-24 09:00N 54°33' E 018°31'0 0.0
2018-Jun-24 08:31N 54°33' E 018°31'1 2.3
2018-Jun-24 08:00N 54°32' E 018°32'4 8.4
2018-Jun-24 07:30N 54°32' E 018°40'4 8.6
2018-Jun-24 07:00N 54°32' E 018°47'4 7.7
2018-Jun-24 06:30N 54°35' E 018°52'4 8.3
2018-Jun-24 06:00N 54°38' E 018°55'3 5.8
2018-Jun-24 05:31N 54°41' E 018°58'3 5.6
2018-Jun-24 05:00N 54°38' E 018°56'2 4.8
2018-Jun-24 04:31N 54°41' E 018°56'510.6
2018-Jun-24 04:00N 54°45' E 018°50'510.5
2018-Jun-24 03:30N 54°48' E 018°44'510.2
2018-Jun-24 02:59N 54°52' E 018°37'510.1
2018-Jun-24 02:30N 54°55' E 018°30'510.4
2018-Jun-24 02:00N 54°56' E 018°22'510.0
2018-Jun-24 01:30N 54°56' E 018°13'110 9.9
2018-Jun-23 14:22N 54°39' E 015°05'91 9.9
2018-Jun-23 05:14N 54°34' E 012°28'210.8
2018-Jun-23 05:00N 54°33' E 012°24'510.8
2018-Jun-23 04:30N 54°30' E 012°17'510.7
2018-Jun-23 04:00N 54°26' E 012°11'1610.4
2018-Jun-23 02:28N 54°26' E 011°44'510.2
2018-Jun-23 02:00N 54°28' E 011°36'611.7
2018-Jun-23 01:30N 54°30' E 011°27'612.4
2018-Jun-23 01:00N 54°33' E 011°17'612.1
2018-Jun-23 00:30N 54°35' E 011°08'611.3
2018-Jun-23 00:00N 54°34' E 010°58'510.7
2018-Jun-22 23:30N 54°34' E 010°49'510.2
2018-Jun-22 22:58N 54°33' E 010°39'54 6.3
2018-Jun-22 14:19N 54°05' E 009°19'3 8.2
2018-Jun-22 13:59N 54°03' E 009°18'4 8.2
2018-Jun-22 13:30N 53°59' E 009°17'3 6.0
2018-Jun-22 13:00N 53°56' E 009°13'2 4.8
2018-Jun-22 12:30N 53°55' E 009°11'0 0.0
2018-Jun-22 12:00N 53°55' E 009°11'0 0.0
2018-Jun-22 11:27N 53°55' E 009°11'0 0.0
2018-Jun-22 11:00N 53°55' E 009°11'0 0.0
2018-Jun-22 10:30N 53°55' E 009°11'1 2.0
2018-Jun-22 10:00N 53°54' E 009°10'1 1.4
2018-Jun-22 09:30N 53°54' E 009°09'2 3.6
2018-Jun-22 09:00N 53°53' E 009°06'510.4
2018-Jun-22 08:30N 53°51' E 008°58'610.9
2018-Jun-22 08:00N 53°50' E 008°48'510.6
2018-Jun-22 07:29N 53°54' E 008°41'510.8
2018-Jun-22 07:00N 53°58' E 008°35'5 9.8
2018-Jun-22 06:30N 53°59' E 008°27'510.0
2018-Jun-22 06:00N 53°60' E 008°19'5 9.9
2018-Jun-22 05:30N 53°59' E 008°10'5 9.5
2018-Jun-22 05:00N 53°58' E 008°02'510.0
2018-Jun-22 04:30N 53°57' E 007°54'68 9.2
2018-Jun-21 21:07N 53°41' E 006°02'1 8.1
2018-Jun-21 20:59N 53°41' E 006°01'4 8.1
2018-Jun-21 20:31N 53°39' E 005°54'4 8.1
2018-Jun-21 20:01N 53°38' E 005°48'4 8.3
2018-Jun-21 19:30N 53°37' E 005°41'4 8.2
2018-Jun-21 18:59N 53°35' E 005°34'4 8.2
2018-Jun-21 18:30N 53°34' E 005°28'4 8.0
2018-Jun-21 18:00N 53°33' E 005°22'4 8.1
2018-Jun-21 17:30N 53°32' E 005°15'4 8.0
2018-Jun-21 17:01N 53°30' E 005°09'4 8.4
2018-Jun-21 16:31N 53°28' E 005°03'4 8.3
2018-Jun-21 16:01N 53°27' E 004°56'4 8.7
2018-Jun-21 15:30N 53°26' E 004°49'4 8.8
2018-Jun-21 15:00N 53°24' E 004°43'4 8.2
2018-Jun-21 14:31N 53°21' E 004°37'4 8.0
2018-Jun-21 14:00N 53°17' E 004°35'4 8.1
2018-Jun-21 13:27N 53°13' E 004°33'4 8.1
2018-Jun-21 13:00N 53°10' E 004°31'4 7.9
2018-Jun-21 12:30N 53°06' E 004°29'5 9.0
2018-Jun-21 12:00N 53°04' E 004°22'4 8.5
2018-Jun-21 11:30N 52°60' E 004°21'43 9.4
2018-Jun-21 06:55N 52°26' E 003°36'50 9.1
2018-Jun-21 01:26N 51°49' E 002°43'4 8.9
2018-Jun-21 00:57N 51°46' E 002°38'4 9.2
2018-Jun-21 00:30N 51°43' E 002°34'5 9.5
2018-Jun-21 00:00N 51°39' E 002°29'610.0
2018-Jun-20 23:27N 51°35' E 002°24'510.1
2018-Jun-20 22:59N 51°31' E 002°19'510.3
2018-Jun-20 22:30N 51°27' E 002°14'510.7
2018-Jun-20 22:00N 51°22' E 002°10'510.8
2018-Jun-20 21:30N 51°17' E 002°06'511.0
2018-Jun-20 21:00N 51°13' E 002°01'611.3
2018-Jun-20 20:31N 51°10' E 001°54'611.6
2018-Jun-20 20:00N 51°06' E 001°46'611.9
2018-Jun-20 19:30N 51°02' E 001°39'612.3
2018-Jun-20 19:00N 50°57' E 001°33'612.8
2018-Jun-20 18:30N 50°52' E 001°27'812.5
2018-Jun-20 17:53N 50°45' E 001°22'4911.3
2018-Jun-20 13:30N 50°21' E 000°14'812.1
2018-Jun-20 12:53N 50°19' E 000°03'511.7
2018-Jun-20 12:29N 50°18' W 000°04'611.5
2018-Jun-20 11:59N 50°17' W 000°13'811.2
2018-Jun-20 11:18N 50°15' W 000°25'510.7
2018-Jun-20 10:49N 50°13' W 000°33'16 9.6
2018-Jun-20 09:11N 50°09' W 000°56'2 8.7
2018-Jun-20 09:00N 50°09' W 000°58'5 8.3
2018-Jun-20 08:26N 50°07' W 001°06'4 7.9
2018-Jun-20 07:58N 50°06' W 001°11'4 7.8
2018-Jun-20 07:28N 50°05' W 001°17'4 7.4
2018-Jun-20 06:58N 50°05' W 001°23'4 7.4
2018-Jun-20 06:28N 50°04' W 001°28'9 7.7
2018-Jun-20 05:20N 50°01' W 001°41'4 8.5
2018-Jun-20 04:53N 50°00' W 001°47'4811.0
2018-Jun-20 00:31N 49°46' W 002°58'011.8
2018-Jun-20 00:30N 49°46' W 002°58'611.7
2018-Jun-19 23:59N 49°43' W 003°06'711.6
2018-Jun-19 23:21N 49°39' W 003°16'8010.5
2018-Jun-19 15:42N 48°59' W 005°03'4 8.9
2018-Jun-19 15:13N 48°56' W 005°08'3 8.8
2018-Jun-19 14:55N 48°55' W 005°12'  
2018-Jun-16 19:34N 39°21' W 009°52'1 8.4
2018-Jun-16 19:29N 39°20' W 009°52'4 8.5
2018-Jun-16 19:00N 39°16' W 009°51'4 8.8
2018-Jun-16 18:30N 39°12' W 009°51'5 8.8
2018-Jun-16 18:00N 39°07' W 009°51'4 8.7
2018-Jun-16 17:30N 39°03' W 009°51'4 8.5
2018-Jun-16 17:01N 38°59' W 009°51'4 8.8
2018-Jun-16 16:30N 38°54' W 009°51'5 9.2
2018-Jun-16 16:01N 38°50' W 009°50'5 9.0
2018-Jun-16 15:30N 38°45' W 009°50'4 8.8
2018-Jun-16 15:00N 38°41' W 009°50'4 8.6
2018-Jun-16 14:31N 38°37' W 009°49'4 8.4
2018-Jun-16 14:00N 38°32' W 009°48'4 8.1
2018-Jun-16 13:31N 38°28' W 009°47'4 8.0
2018-Jun-16 13:01N 38°24' W 009°46'4 7.8
2018-Jun-16 12:30N 38°21' W 009°44'4 7.8
2018-Jun-16 12:00N 38°17' W 009°43'4 7.8
2018-Jun-16 11:31N 38°13' W 009°42'4 7.9
2018-Jun-16 11:00N 38°09' W 009°41'4 8.0
2018-Jun-16 10:31N 38°05' W 009°39'4 8.0
2018-Jun-16 10:01N 38°01' W 009°38'4 8.0
2018-Jun-16 09:30N 37°58' W 009°37'4 7.6
2018-Jun-16 08:57N 37°53' W 009°36'4 7.6
2018-Jun-16 08:29N 37°50' W 009°35'4 7.7
2018-Jun-16 08:00N 37°46' W 009°34'4 7.7
2018-Jun-16 07:30N 37°43' W 009°33'4 7.5
2018-Jun-16 06:58N 37°39' W 009°32'29 8.0
2018-Jun-16 03:22N 37°11' W 009°23'4 8.5
2018-Jun-16 02:55N 37°07' W 009°23'4 8.5
2018-Jun-16 02:29N 37°03' W 009°21'4 8.4
2018-Jun-16 02:00N 36°60' W 009°20'4 8.0
2018-Jun-16 01:30N 36°56' W 009°19'4 7.9
2018-Jun-16 00:59N 36°52' W 009°17'5 8.5
2018-Jun-16 00:21N 36°48' W 009°12'4 8.6
2018-Jun-15 23:55N 36°46' W 009°09'4 7.8
2018-Jun-15 23:24N 36°44' W 009°04'3 8.0
2018-Jun-15 23:01N 36°43' W 009°00'4 8.1
2018-Jun-15 22:31N 36°42' W 008°56'4 8.4
2018-Jun-15 22:00N 36°41' W 008°50'4 8.8
2018-Jun-15 21:30N 36°39' W 008°45'5 9.1
2018-Jun-15 20:58N 36°38' W 008°39'4 9.3
2018-Jun-15 20:30N 36°37' W 008°34'5 9.2
2018-Jun-15 20:00N 36°35' W 008°29'5 9.1
2018-Jun-15 19:31N 36°34' W 008°23'5 9.2
2018-Jun-15 19:00N 36°33' W 008°18'14 9.6
2018-Jun-15 17:30N 36°29' W 008°01'5 9.8
2018-Jun-15 17:00N 36°27' W 007°55'610.0
2018-Jun-15 16:27N 36°26' W 007°48'410.2
2018-Jun-15 16:01N 36°25' W 007°43'510.4
2018-Jun-15 15:30N 36°23' W 007°36'97 9.7
2018-Jun-15 05:31N 35°58' W 005°40'1 8.2
2018-Jun-15 05:25N 35°58' W 005°39'3 8.0
2018-Jun-15 05:00N 35°58' W 005°35'4 8.4
2018-Jun-15 04:31N 35°59' W 005°30'4 8.2
2018-Jun-15 04:01N 35°60' W 005°25'4 7.8
2018-Jun-15 03:30N 36°01' W 005°20'4 7.6
2018-Jun-15 03:01N 36°01' W 005°16'4 7.3
2018-Jun-15 02:30N 36°02' W 005°11'  

Dump ship's entire track history